Terminal Aerodrome Forecast
Issued by NWS

Home | Current Version | Previous Version | Text Only | Print | Product List | Glossary On
Versions: 1 2 3 4 5 6 7 8 9 10 11 12 13 14 15
000
FTPQ31 PGUM 130608 CCA
TAFGWT
TAF COR
PGWT 130608Z 1306/1406 09013KT P6SM VCSH SCT015
     FM130800 09010KT P6SM VCSH SCT015
     FM140000 10015KT P6SM VCSH SCT015 SCT120=

USA.gov is the U.S. government's official web portal to all federal, state and local government web resources and services.